»·PEaware :: N52916 KAVX-KSAN

N52916 :: KAVX-KSAN

FLIGHT INFORMATION

Flight Status: Arrived
Operator: Privately registered:
United States
More flights under this callsign
Pilot: Darrell L. (26937)
Aircraft: CESSNA 182 SKYLANE
(C182)
More flights by this aircraft type
Origin: KAVX Catalina
United States
Destination: KSAN San Diego Intl-Lindbergh
United States
More flights between these airports :: More routes between these airports
Route: SXC V208 OCN V23 MZB
File this flight plan on PilotEdge
Remarks: I-08
Altitude:
(Current/Filed)
5,000ft
Speed:
(Current/Filed)
135kts
Departed: 02-Feb-20 09:51 AM
Arrived: 02-Feb-20 10:41 AM
Distance/Time
Traveled:
74nm/0:50
Distance/Time
To Go:
Arrived

Flight Plot

Page will automatically refresh every two minutes.


Map Options




Map Legend


Flown Route
Filed Route
Departure Airport
Arrival Airport
Navaid (VOR, NDB)
Fix

Horizontal Profiles

Position Reports

Time Latitude Longitude Heading Altitude Ground
Speed
02-Feb-20 09:42 33.402809 -118.418212 303 1558ft 0kts
02-Feb-20 09:43 33.402809 -118.418212 303 1558ft 0kts
02-Feb-20 09:44 33.402809 -118.418212 303 1558ft 0kts
02-Feb-20 09:45 33.402809 -118.418212 303 1558ft 0kts
02-Feb-20 09:46 33.402811 -118.418217 301 1558ft 0kts
02-Feb-20 09:47 33.402368 -118.419525 237 1554ft 0kts
02-Feb-20 09:48 33.402367 -118.419526 237 1554ft 0kts
02-Feb-20 09:49 33.402617 -118.419773 44 1553ft 13kts
02-Feb-20 09:50 33.410415 -118.401890 92 2493ft 73kts
02-Feb-20 09:51 33.395890 -118.389717 145 3770ft 54kts
02-Feb-20 09:52 33.372649 -118.370323 145 3995ft 145kts
02-Feb-20 09:53 33.357092 -118.331423 80 4570ft 132kts
02-Feb-20 09:54 33.357738 -118.291250 95 5686ft 123kts
02-Feb-20 09:55 33.351340 -118.238834 99 5069ft 165kts
02-Feb-20 09:56 33.344242 -118.185712 98 5002ft 161kts
02-Feb-20 09:57 33.337374 -118.133474 98 5001ft 156kts
02-Feb-20 09:58 33.330697 -118.083058 98 5002ft 155kts
02-Feb-20 09:59 33.324095 -118.033395 98 5002ft 155kts
02-Feb-20 10:00 33.317345 -117.982814 98 5002ft 155kts
02-Feb-20 10:01 33.310571 -117.932188 98 5002ft 155kts
02-Feb-20 10:02 33.303841 -117.882037 98 5000ft 156kts
02-Feb-20 10:03 33.297011 -117.831318 98 4999ft 155kts
02-Feb-20 10:04 33.290185 -117.780738 98 4999ft 155kts
02-Feb-20 10:05 33.283179 -117.730251 100 4999ft 155kts
02-Feb-20 10:06 33.275568 -117.680306 99 4995ft 155kts
02-Feb-20 10:07 33.267915 -117.629860 99 4961ft 155kts
02-Feb-20 10:08 33.261358 -117.586346 99 4923ft 156kts
02-Feb-20 10:09 33.255406 -117.540914 97 4922ft 155kts
02-Feb-20 10:10 33.249366 -117.490333 97 4922ft 155kts
02-Feb-20 10:11 33.243210 -117.439897 97 4922ft 155kts
02-Feb-20 10:12 33.215958 -117.407025 158 4923ft 155kts
02-Feb-20 10:13 33.175941 -117.390508 160 4922ft 155kts
02-Feb-20 10:14 33.136100 -117.373807 160 4922ft 155kts
02-Feb-20 10:15 33.095882 -117.356897 160 4922ft 155kts
02-Feb-20 10:16 33.058890 -117.341359 160 4922ft 155kts
02-Feb-20 10:17 33.018295 -117.324323 160 4922ft 155kts
02-Feb-20 10:18 32.978012 -117.307432 160 4922ft 155kts
02-Feb-20 10:19 32.938683 -117.290958 160 4922ft 155kts
02-Feb-20 10:20 32.900547 -117.274998 160 4922ft 155kts
02-Feb-20 10:21 32.863633 -117.259562 160 4922ft 155kts
02-Feb-20 10:22 32.825289 -117.240953 128 4920ft 155kts
02-Feb-20 10:23 32.815410 -117.195417 101 4922ft 155kts
02-Feb-20 10:24 32.807341 -117.149064 101 4922ft 155kts
02-Feb-20 10:25 32.799111 -117.101745 101 4922ft 155kts
02-Feb-20 10:26 32.790837 -117.054131 101 4922ft 155kts
02-Feb-20 10:27 32.782430 -117.005710 101 4922ft 155kts
02-Feb-20 10:28 32.773761 -116.955728 101 4922ft 155kts
02-Feb-20 10:29 32.765115 -116.905837 101 4922ft 155kts
02-Feb-20 10:30 32.733266 -116.879587 161 4922ft 155kts
02-Feb-20 10:31 32.692790 -116.863567 161 4922ft 155kts
02-Feb-20 10:32 32.663471 -116.887500 255 4506ft 171kts
02-Feb-20 10:33 32.673552 -116.946420 290 3523ft 168kts
02-Feb-20 10:34 32.688098 -116.995073 278 3600ft 146kts
02-Feb-20 10:35 32.700380 -117.046385 283 2835ft 166kts
02-Feb-20 10:36 32.708396 -117.092709 294 795ft 118kts
02-Feb-20 10:37 32.718321 -117.123536 293 1200ft 104kts
02-Feb-20 10:38 32.725645 -117.161421 298 593ft 90kts
02-Feb-20 10:39 32.732755 -117.186171 289 15ft 55kts
02-Feb-20 10:40 32.733246 -117.191553 202 16ft 1kts
02-Feb-20 10:42 32.732571 -117.193381 199 16ft 0kts

Navigation Log

Ident Type
Flight plan parsing failed, navigation log unavailable